createdAt,value
2022-10-18T00:02:24.065Z,61.09
2022-10-18T00:04:52.560Z,61.15
2022-10-18T00:07:21.041Z,60.91
2022-10-18T00:09:50.657Z,61.01
2022-10-18T00:12:19.122Z,61.15
2022-10-18T00:14:49.907Z,61.06
2022-10-18T00:17:18.438Z,61.05
2022-10-18T00:19:47.029Z,61.09
2022-10-18T00:22:15.500Z,61.17
2022-10-18T00:24:43.949Z,61.03
2022-10-18T00:27:14.342Z,61.17
2022-10-18T00:29:42.918Z,60.96
2022-10-18T00:32:12.083Z,60.94
2022-10-18T00:34:40.988Z,61.05
2022-10-18T00:37:09.408Z,60.88
2022-10-18T00:39:37.904Z,60.98
2022-10-18T00:42:06.462Z,61.06
2022-10-18T00:45:04.023Z,60.87
2022-10-18T00:47:33.022Z,60.89
2022-10-18T00:50:04.145Z,60.99
2022-10-18T00:52:35.856Z,61.05
2022-10-18T00:55:05.611Z,61.19
2022-10-18T00:57:34.395Z,60.82
2022-10-18T01:00:07.483Z,61.11
2022-10-18T01:02:35.851Z,60.82
2022-10-18T01:05:04.780Z,60.82
2022-10-18T01:07:47.046Z,61.07
2022-10-18T01:10:25.201Z,61.09
2022-10-18T01:13:04.457Z,60.99
2022-10-18T01:15:36.455Z,60.92
2022-10-18T01:18:10.416Z,61.11
2022-10-18T01:21:15.643Z,61.15
2022-10-18T01:24:25.357Z,61.09
2022-10-18T01:27:20.182Z,60.67
2022-10-18T01:29:59.356Z,60.80
2022-10-18T01:32:30.433Z,60.79
2022-10-18T01:35:03.468Z,61.07
2022-10-18T01:37:33.146Z,60.47
2022-10-18T01:40:06.501Z,60.90
2022-10-18T01:42:35.386Z,60.86
2022-10-18T01:45:05.210Z,60.81
2022-10-18T01:47:35.373Z,60.71
2022-10-18T01:50:06.920Z,60.90
2022-10-18T01:52:35.495Z,61.02
2022-10-18T01:55:04.930Z,60.87
2022-10-18T01:57:36.860Z,60.76
2022-10-18T02:00:08.493Z,60.71
2022-10-18T02:02:47.844Z,60.86
2022-10-18T02:05:24.138Z,60.87
2022-10-18T02:08:05.677Z,60.77
2022-10-18T02:10:46.010Z,60.29
2022-10-18T02:13:16.278Z,60.98
2022-10-18T02:15:49.825Z,60.82
2022-10-18T02:18:22.686Z,60.72
2022-10-18T02:20:51.819Z,60.74
2022-10-18T02:23:23.059Z,60.78
2022-10-18T02:25:51.727Z,60.82
2022-10-18T02:28:20.272Z,60.67
2022-10-18T02:30:52.657Z,61.13
2022-10-18T02:33:27.578Z,60.66
2022-10-18T02:36:00.564Z,60.62
2022-10-18T02:38:29.869Z,60.88
2022-10-18T02:40:58.352Z,60.53
2022-10-18T02:43:26.847Z,60.74
2022-10-18T02:45:55.388Z,60.62
2022-10-18T02:48:25.069Z,60.84
2022-10-18T02:50:53.456Z,60.50
2022-10-18T02:53:21.935Z,61.09
2022-10-18T02:55:50.383Z,60.79
2022-10-18T02:58:18.807Z,60.60
2022-10-18T03:00:47.090Z,60.43
2022-10-18T03:03:15.533Z,60.66
2022-10-18T03:05:45.369Z,60.61
2022-10-18T03:08:13.868Z,60.66
2022-10-18T03:10:44.425Z,60.75
2022-10-18T03:13:12.940Z,60.66
2022-10-18T03:15:42.176Z,60.35
2022-10-18T03:18:11.082Z,60.65
2022-10-18T03:20:39.486Z,60.39
2022-10-18T03:23:09.354Z,60.48
2022-10-18T03:25:39.534Z,60.26
2022-10-18T03:28:09.994Z,60.60
2022-10-18T03:30:38.796Z,60.39
2022-10-18T03:33:07.323Z,60.47
2022-10-18T03:35:35.667Z,60.28
2022-10-18T03:38:04.000Z,60.43
2022-10-18T03:40:33.773Z,60.46
2022-10-18T03:43:02.209Z,60.49
2022-10-18T03:45:31.480Z,60.50
2022-10-18T03:48:00.032Z,59.93
2022-10-18T03:50:28.370Z,60.61
2022-10-18T03:52:56.810Z,60.31
2022-10-18T03:55:25.385Z,60.66
2022-10-18T03:57:55.069Z,60.43
2022-10-18T04:00:23.728Z,60.27
2022-10-18T04:02:55.076Z,60.32
2022-10-18T04:05:26.965Z,60.31
2022-10-18T04:07:55.478Z,60.36
2022-10-18T04:10:24.405Z,60.36
2022-10-18T04:12:52.781Z,60.41
2022-10-18T04:15:22.564Z,60.45
2022-10-18T04:17:51.313Z,60.50
2022-10-18T04:20:20.405Z,60.29
2022-10-18T04:22:50.199Z,60.57
2022-10-18T04:25:19.419Z,60.33
2022-10-18T04:27:48.356Z,60.38
2022-10-18T04:30:16.992Z,60.30
2022-10-18T04:32:46.666Z,60.62
2022-10-18T04:35:15.595Z,60.37
2022-10-18T04:37:44.355Z,60.28
2022-10-18T04:40:13.705Z,60.12
2022-10-18T04:42:42.058Z,60.36
2022-10-18T04:45:11.639Z,60.65
2022-10-18T04:47:41.814Z,60.48
2022-10-18T04:50:11.849Z,60.56
2022-10-18T04:52:40.232Z,60.67
2022-10-18T04:55:09.417Z,60.40
2022-10-18T04:57:37.759Z,60.53
2022-10-18T05:00:07.387Z,60.29
2022-10-18T05:02:35.748Z,60.37
2022-10-18T05:05:04.412Z,60.54
2022-10-18T05:07:34.085Z,60.32
2022-10-18T05:10:02.485Z,60.10
2022-10-18T05:12:31.599Z,60.36
2022-10-18T05:15:00.152Z,60.50
2022-10-18T05:17:28.507Z,60.22
2022-10-18T05:19:56.898Z,60.31
2022-10-18T05:22:25.322Z,60.19
2022-10-18T05:24:55.062Z,60.40
2022-10-18T05:27:23.585Z,60.37
2022-10-18T05:29:51.914Z,60.35
2022-10-18T05:32:20.356Z,60.27
2022-10-18T05:34:48.871Z,60.24
2022-10-18T05:37:17.198Z,60.17
2022-10-18T05:39:45.757Z,60.48
2022-10-18T05:42:15.440Z,60.56
2022-10-18T05:44:43.959Z,60.19
2022-10-18T05:47:12.312Z,60.31
2022-10-18T05:49:40.706Z,60.37
2022-10-18T05:52:09.425Z,60.32
2022-10-18T05:54:38.913Z,60.19
2022-10-18T05:57:07.641Z,60.21
2022-10-18T05:59:37.470Z,60.38
2022-10-18T06:02:06.028Z,60.38
2022-10-18T06:04:34.742Z,60.52
2022-10-18T06:07:03.196Z,60.03
2022-10-18T06:09:31.612Z,60.21
2022-10-18T06:12:00.020Z,60.30
2022-10-18T06:14:28.398Z,60.16
2022-10-18T06:17:00.918Z,60.30
2022-10-18T06:19:29.520Z,60.07
2022-10-18T06:21:58.081Z,60.09
2022-10-18T06:24:26.671Z,60.24
2022-10-18T06:26:55.236Z,60.20
2022-10-18T06:29:24.435Z,60.30
2022-10-18T06:31:53.537Z,60.24
2022-10-18T06:34:23.577Z,60.41
2022-10-18T06:36:55.015Z,60.16
2022-10-18T06:39:26.845Z,60.35
2022-10-18T06:41:55.469Z,60.23
2022-10-18T06:44:23.942Z,60.40
2022-10-18T06:46:53.479Z,60.08
2022-10-18T06:49:23.194Z,60.14
2022-10-18T06:51:51.513Z,60.15
2022-10-18T06:54:20.021Z,60.22
2022-10-18T06:56:49.942Z,60.12
2022-10-18T06:59:18.619Z,59.89
2022-10-18T07:01:47.083Z,60.05
2022-10-18T07:04:17.548Z,60.02
2022-10-18T07:06:47.640Z,60.32
2022-10-18T07:09:16.023Z,60.14
2022-10-18T07:11:44.799Z,60.10
2022-10-18T07:14:16.479Z,60.11
2022-10-18T07:16:45.065Z,60.10
2022-10-18T07:19:15.058Z,60.04
2022-10-18T07:21:43.559Z,59.90
2022-10-18T07:24:13.726Z,60.06
2022-10-18T07:26:42.427Z,60.13
2022-10-18T07:29:13.524Z,60.34
2022-10-18T07:31:42.200Z,59.89
2022-10-18T07:34:13.335Z,59.95
2022-10-18T07:36:42.227Z,59.79
2022-10-18T07:39:10.954Z,59.94
2022-10-18T07:41:40.689Z,59.85
2022-10-18T07:44:09.182Z,60.01
2022-10-18T07:46:37.741Z,60.13
2022-10-18T07:49:06.138Z,59.89
2022-10-18T07:51:36.210Z,59.85
2022-10-18T07:54:04.775Z,59.92
2022-10-18T07:56:33.301Z,59.99
2022-10-18T07:59:03.303Z,60.12
2022-10-18T08:01:32.342Z,59.69
2022-10-18T08:04:06.963Z,59.83
2022-10-18T08:06:36.386Z,59.69
2022-10-18T08:09:05.490Z,59.99
2022-10-18T08:11:34.137Z,60.01
2022-10-18T08:14:03.969Z,60.13
2022-10-18T08:19:01.106Z,60.27
2022-10-18T08:21:29.504Z,60.00
2022-10-18T08:23:57.893Z,59.87
2022-10-18T08:26:26.250Z,60.00
2022-10-18T08:29:10.382Z,60.06
2022-10-18T08:31:44.194Z,59.97
2022-10-18T08:34:17.190Z,59.97
2022-10-18T08:36:47.767Z,60.04
2022-10-18T08:39:16.501Z,59.88
2022-10-18T08:41:56.245Z,59.81
2022-10-18T08:44:26.310Z,59.90
2022-10-18T08:47:00.252Z,60.19
2022-10-18T08:49:31.908Z,60.09
2022-10-18T08:52:00.988Z,60.20
2022-10-18T08:54:34.561Z,59.71
2022-10-18T08:57:07.335Z,59.38
2022-10-18T08:59:39.811Z,59.33
2022-10-18T09:02:18.512Z,59.58
2022-10-18T09:04:53.372Z,59.68
2022-10-18T09:08:00.486Z,59.64
2022-10-18T09:10:35.575Z,59.75
2022-10-18T09:13:24.369Z,59.74
2022-10-18T09:15:56.241Z,59.71
2022-10-18T09:18:38.081Z,59.49
2022-10-18T09:21:16.269Z,59.04
2022-10-18T09:23:48.292Z,59.32
2022-10-18T09:26:18.909Z,59.32
2022-10-18T09:29:00.686Z,59.26
2022-10-18T09:31:33.918Z,59.08
2022-10-18T09:34:06.394Z,59.00
2022-10-18T09:36:37.193Z,59.18
2022-10-18T09:39:11.563Z,59.19
2022-10-18T09:41:43.650Z,59.00
2022-10-18T09:44:17.043Z,58.91
2022-10-18T09:46:49.024Z,59.15
2022-10-18T09:49:21.739Z,58.94
2022-10-18T09:51:51.140Z,59.13
2022-10-18T09:54:27.105Z,59.23
2022-10-18T09:56:59.329Z,58.79
2022-10-18T09:59:35.473Z,58.85
2022-10-18T10:02:04.175Z,58.82
2022-10-18T10:04:33.898Z,59.00
2022-10-18T10:07:03.705Z,58.96
2022-10-18T10:09:38.388Z,58.98
2022-10-18T10:12:06.932Z,58.79
2022-10-18T10:14:45.023Z,58.90
2022-10-18T10:17:25.060Z,58.90
2022-10-18T10:20:05.061Z,59.26
2022-10-18T10:22:36.377Z,59.10
2022-10-18T10:25:05.867Z,59.05
2022-10-18T10:27:41.004Z,59.11
2022-10-18T10:30:24.866Z,58.97
2022-10-18T10:32:54.618Z,58.88
2022-10-18T10:35:48.996Z,58.87
2022-10-18T10:38:25.740Z,58.67
2022-10-18T10:40:54.480Z,58.73
2022-10-18T10:43:42.026Z,59.09
2022-10-18T10:46:13.517Z,58.97
2022-10-18T10:48:50.717Z,58.95
2022-10-18T10:51:30.265Z,58.73
2022-10-18T10:54:02.204Z,59.34
2022-10-18T10:56:32.047Z,59.26
2022-10-18T10:59:09.733Z,59.43
2022-10-18T11:01:38.501Z,59.80
2022-10-18T11:04:25.685Z,60.02
2022-10-18T11:07:04.283Z,60.11
2022-10-18T11:09:45.415Z,60.30
2022-10-18T11:12:21.533Z,59.78
2022-10-18T11:14:54.127Z,59.59
2022-10-18T11:17:28.213Z,59.76
2022-10-18T11:20:15.585Z,59.98
2022-10-18T11:22:58.568Z,59.54
2022-10-18T11:25:41.401Z,59.71
2022-10-18T11:28:15.053Z,60.53
2022-10-18T11:30:53.430Z,60.67
2022-10-18T11:33:42.926Z,61.73
2022-10-18T11:36:19.512Z,60.86
2022-10-18T11:38:55.144Z,60.83
2022-10-18T11:41:36.096Z,60.55
2022-10-18T11:44:05.825Z,60.68
2022-10-18T11:46:42.235Z,59.36
2022-10-18T11:49:18.957Z,59.30
2022-10-18T11:52:08.266Z,59.37
2022-10-18T11:55:31.891Z,59.38
2022-10-18T11:58:11.239Z,59.18
2022-10-18T12:00:49.013Z,59.27
2022-10-18T12:03:33.128Z,59.13
2022-10-18T12:06:05.855Z,59.35
2022-10-18T12:08:37.904Z,59.99
2022-10-18T12:11:11.469Z,59.41
2022-10-18T12:13:45.966Z,59.17
2022-10-18T12:16:14.557Z,59.48
2022-10-18T12:18:49.571Z,59.46
2022-10-18T12:21:25.357Z,59.34
2022-10-18T12:23:57.138Z,58.86
2022-10-18T12:26:26.627Z,59.07
2022-10-18T12:29:18.141Z,59.18
2022-10-18T12:31:49.548Z,59.16
2022-10-18T12:34:31.632Z,59.18
2022-10-18T12:37:18.689Z,59.35
2022-10-18T12:40:09.093Z,59.52
2022-10-18T12:42:42.617Z,59.33
2022-10-18T12:45:26.711Z,59.38
2022-10-18T12:47:56.213Z,59.30
2022-10-18T12:50:30.669Z,59.28
2022-10-18T12:53:08.379Z,59.32
2022-10-18T12:55:38.137Z,59.51
2022-10-18T12:58:28.798Z,59.32
2022-10-18T13:01:06.969Z,59.34
2022-10-18T13:03:52.210Z,59.61
2022-10-18T13:06:21.095Z,59.33
2022-10-18T13:08:51.144Z,59.66
2022-10-18T13:11:35.981Z,59.88
2022-10-18T13:14:19.346Z,59.83
2022-10-18T13:16:54.093Z,59.93
2022-10-18T13:19:26.138Z,59.67
2022-10-18T13:22:07.723Z,59.78
2022-10-18T13:24:41.072Z,60.01
2022-10-18T13:27:36.806Z,60.02
2022-10-18T13:30:31.843Z,60.01
2022-10-18T13:33:10.880Z,59.79
2022-10-18T13:35:45.146Z,59.84
2022-10-18T13:38:39.536Z,59.91
2022-10-18T13:41:10.429Z,59.75
2022-10-18T13:44:20.113Z,59.62
2022-10-18T13:47:25.410Z,59.89
2022-10-18T13:50:26.254Z,60.02
2022-10-18T13:53:31.441Z,60.11
2022-10-18T13:56:13.397Z,60.03
2022-10-18T13:58:49.264Z,59.79
2022-10-18T14:01:30.401Z,60.04
2022-10-18T14:04:30.808Z,60.27
2022-10-18T14:07:02.864Z,59.82
2022-10-18T14:09:55.028Z,59.97
2022-10-18T14:12:28.524Z,60.13
2022-10-18T14:15:00.919Z,59.93
2022-10-18T14:17:35.333Z,60.09
2022-10-18T14:20:15.744Z,59.95
2022-10-18T14:22:49.066Z,59.64
2022-10-18T14:25:22.288Z,59.73
2022-10-18T14:28:06.863Z,60.07
2022-10-18T14:30:36.988Z,59.70
2022-10-18T14:33:05.392Z,59.94
2022-10-18T14:35:35.486Z,60.03
2022-10-18T14:38:07.372Z,60.15
2022-10-18T14:40:38.959Z,60.19
2022-10-18T14:43:11.421Z,59.78
2022-10-18T14:45:39.958Z,59.89
2022-10-18T14:48:15.045Z,60.15
2022-10-18T14:50:44.818Z,60.07
2022-10-18T14:53:18.429Z,60.07
2022-10-18T14:55:56.139Z,60.07
2022-10-18T14:58:27.085Z,60.12
2022-10-18T15:00:55.859Z,59.88
2022-10-18T15:03:24.977Z,60.08
2022-10-18T15:05:55.100Z,59.84
2022-10-18T15:08:25.559Z,59.45
2022-10-18T15:10:54.844Z,59.83
2022-10-18T15:13:25.089Z,59.42
2022-10-18T15:15:54.149Z,59.34
2022-10-18T15:18:24.584Z,59.46
2022-10-18T15:21:10.146Z,59.44
2022-10-18T15:23:39.885Z,59.51
2022-10-18T15:26:11.046Z,59.54
2022-10-18T15:28:49.522Z,59.48
2022-10-18T15:31:23.879Z,59.29
2022-10-18T15:33:52.794Z,59.64
2022-10-18T15:36:28.144Z,59.71
2022-10-18T15:39:07.323Z,59.79
2022-10-18T15:41:45.865Z,59.62
2022-10-18T15:44:21.819Z,59.73
2022-10-18T15:46:52.895Z,59.63
2022-10-18T15:49:51.943Z,59.85
2022-10-18T15:52:37.749Z,59.92
2022-10-18T15:55:48.679Z,59.97
2022-10-18T15:58:20.364Z,59.98
2022-10-18T16:00:50.045Z,59.95
2022-10-18T16:03:19.362Z,60.00
2022-10-18T16:05:47.733Z,59.94
2022-10-18T16:08:24.287Z,59.92
2022-10-18T16:10:54.110Z,60.11
2022-10-18T16:13:22.574Z,60.05
2022-10-18T16:15:51.183Z,59.99
2022-10-18T16:18:21.016Z,60.01
2022-10-18T16:20:49.672Z,60.13
2022-10-18T16:23:20.438Z,59.74
2022-10-18T16:25:49.073Z,60.03
2022-10-18T16:28:21.381Z,59.99
2022-10-18T16:30:55.178Z,59.91
2022-10-18T16:33:24.310Z,60.01
2022-10-18T16:35:53.265Z,60.29
2022-10-18T16:38:28.686Z,60.11
2022-10-18T16:40:59.750Z,60.21
2022-10-18T16:43:29.561Z,60.32
2022-10-18T16:45:57.919Z,60.39
2022-10-18T16:48:27.056Z,60.19
2022-10-18T16:50:56.740Z,60.39
2022-10-18T16:53:26.198Z,60.70
2022-10-18T16:55:56.357Z,60.52
2022-10-18T16:58:26.140Z,60.29
2022-10-18T17:00:55.904Z,60.50
2022-10-18T17:03:24.905Z,60.81
2022-10-18T17:05:53.687Z,60.69
2022-10-18T17:08:24.553Z,60.89
2022-10-18T17:10:55.639Z,60.69
2022-10-18T17:13:24.756Z,60.71
2022-10-18T17:15:53.633Z,60.70
2022-10-18T17:18:26.410Z,60.80
2022-10-18T17:20:55.108Z,60.92
2022-10-18T17:23:23.537Z,61.04
2022-10-18T17:26:06.908Z,61.13
2022-10-18T17:28:38.427Z,61.01
2022-10-18T17:31:08.306Z,60.93
2022-10-18T17:33:38.185Z,60.95
2022-10-18T17:36:06.880Z,61.19
2022-10-18T17:38:35.433Z,61.23
2022-10-18T17:41:07.354Z,61.22
2022-10-18T17:43:37.738Z,61.27
2022-10-18T17:46:06.669Z,61.19
2022-10-18T17:48:35.264Z,61.17
2022-10-18T17:51:09.225Z,61.16
2022-10-18T17:53:37.780Z,61.24
2022-10-18T17:56:07.766Z,61.25
2022-10-18T17:58:36.650Z,61.09
2022-10-18T18:01:15.759Z,61.25
2022-10-18T18:03:44.639Z,61.17
2022-10-18T18:06:17.004Z,61.24
2022-10-18T18:08:46.572Z,61.16
2022-10-18T18:11:16.353Z,61.15
2022-10-18T18:13:44.732Z,61.05
2022-10-18T18:16:15.581Z,61.12
2022-10-18T18:18:44.386Z,60.93
2022-10-18T18:21:13.056Z,61.10
2022-10-18T18:23:42.841Z,60.93
2022-10-18T18:26:11.278Z,60.60
2022-10-18T18:28:39.873Z,61.03
2022-10-18T18:31:09.042Z,61.21
2022-10-18T18:33:37.775Z,61.27
2022-10-18T18:36:06.991Z,61.23
2022-10-18T18:38:36.777Z,61.26
2022-10-18T18:41:11.383Z,61.28
2022-10-18T18:43:41.822Z,61.40
2022-10-18T18:46:10.983Z,61.41
2022-10-18T18:48:40.725Z,61.40
2022-10-18T18:51:12.973Z,61.39
2022-10-18T18:53:42.047Z,61.53
2022-10-18T18:56:16.918Z,61.70
2022-10-18T18:58:46.016Z,61.48
2022-10-18T19:01:17.139Z,61.63
2022-10-18T19:03:46.727Z,61.75
2022-10-18T19:06:17.860Z,61.56
2022-10-18T19:08:46.985Z,61.36
2022-10-18T19:11:19.096Z,61.37
2022-10-18T19:13:47.844Z,61.43
2022-10-18T19:16:22.748Z,61.51
2022-10-18T19:18:56.777Z,61.61
2022-10-18T19:21:26.880Z,61.23
2022-10-18T19:23:56.044Z,61.87
2022-10-18T19:26:32.323Z,61.32
2022-10-18T19:29:07.549Z,61.36
2022-10-18T19:31:36.679Z,61.31
2022-10-18T19:34:06.195Z,61.35
2022-10-18T19:36:34.739Z,61.39
2022-10-18T19:39:03.270Z,61.27
2022-10-18T19:41:33.808Z,61.30
2022-10-18T19:44:02.501Z,61.55
2022-10-18T19:46:30.957Z,61.54
2022-10-18T19:48:59.477Z,61.36
2022-10-18T19:51:28.581Z,61.24
2022-10-18T19:53:57.734Z,61.58
2022-10-18T19:56:27.259Z,61.33
2022-10-18T19:58:58.037Z,61.53
2022-10-18T20:01:27.363Z,61.38
2022-10-18T20:03:55.819Z,61.50
2022-10-18T20:06:24.592Z,61.43
2022-10-18T20:08:53.257Z,61.51
2022-10-18T20:11:23.185Z,61.35
2022-10-18T20:13:52.315Z,61.61
2022-10-18T20:16:27.868Z,61.58
2022-10-18T20:18:58.490Z,61.74
2022-10-18T20:21:28.326Z,61.55
2022-10-18T20:23:57.979Z,61.32
2022-10-18T20:26:26.800Z,61.35
2022-10-18T20:28:57.927Z,61.34
2022-10-18T20:31:29.481Z,61.44
2022-10-18T20:33:59.713Z,61.42
2022-10-18T20:36:28.894Z,61.54
2022-10-18T20:38:58.001Z,61.29
2022-10-18T20:41:28.512Z,61.08
2022-10-18T20:43:58.743Z,61.38
2022-10-18T20:46:33.955Z,61.25
2022-10-18T20:49:02.987Z,61.23
2022-10-18T20:51:33.638Z,61.35
2022-10-18T20:56:35.377Z,60.93
2022-10-18T20:59:06.140Z,61.52
2022-10-18T21:01:37.505Z,61.22
2022-10-18T21:04:08.439Z,61.41
2022-10-18T21:06:40.184Z,61.36
2022-10-18T21:09:10.038Z,61.32
2022-10-18T21:11:39.937Z,61.27
2022-10-18T21:14:10.693Z,61.33
2022-10-18T21:16:40.444Z,61.37
2022-10-18T21:19:12.554Z,61.25
2022-10-18T21:21:42.245Z,61.22
2022-10-18T21:24:10.671Z,61.06
2022-10-18T21:26:39.239Z,61.34
2022-10-18T21:29:08.092Z,61.43
2022-10-18T21:31:39.006Z,61.36
2022-10-18T21:34:12.742Z,61.51
2022-10-18T21:36:41.862Z,61.23
2022-10-18T21:39:14.743Z,61.27
2022-10-18T21:41:43.568Z,61.36
2022-10-18T21:44:12.479Z,61.36
2022-10-18T21:46:42.984Z,61.30
2022-10-18T21:49:13.586Z,61.41
2022-10-18T21:51:42.436Z,61.44
2022-10-18T21:54:13.149Z,61.35
2022-10-18T21:56:41.589Z,61.22
2022-10-18T21:59:11.934Z,61.33
2022-10-18T22:01:40.857Z,61.34
2022-10-18T22:04:20.461Z,61.50
2022-10-18T22:06:49.212Z,61.11
2022-10-18T22:09:17.677Z,61.48
2022-10-18T22:11:48.887Z,61.28
2022-10-18T22:14:17.345Z,61.44
2022-10-18T22:16:45.693Z,61.20
2022-10-18T22:19:14.331Z,61.40
2022-10-18T22:21:44.176Z,61.26
2022-10-18T22:24:12.790Z,61.33
2022-10-18T22:26:42.853Z,61.32
2022-10-18T22:29:13.261Z,61.52
2022-10-18T22:31:43.623Z,61.20
2022-10-18T22:34:13.558Z,61.42
2022-10-18T22:36:42.284Z,61.36
2022-10-18T22:39:14.376Z,61.28
2022-10-18T22:41:43.529Z,61.26
2022-10-18T22:44:13.142Z,61.30
2022-10-18T22:46:42.260Z,61.40
2022-10-18T22:49:11.435Z,61.20
2022-10-18T22:51:39.877Z,61.11
2022-10-18T22:54:08.451Z,61.25
2022-10-18T22:56:38.065Z,61.32
2022-10-18T22:59:06.566Z,61.12
2022-10-18T23:01:35.057Z,61.28
2022-10-18T23:04:04.805Z,61.55
2022-10-18T23:06:35.168Z,61.18
2022-10-18T23:09:06.521Z,61.10
2022-10-18T23:11:36.040Z,60.89
2022-10-18T23:14:06.648Z,60.98
2022-10-18T23:16:35.172Z,61.25
2022-10-18T23:19:03.907Z,61.04
2022-10-18T23:21:32.344Z,61.30
2022-10-18T23:24:00.761Z,61.40
2022-10-18T23:26:29.109Z,61.15
2022-10-18T23:28:57.895Z,61.03
2022-10-18T23:31:29.004Z,61.25
2022-10-18T23:33:58.720Z,61.46
2022-10-18T23:36:27.543Z,61.28
2022-10-18T23:38:56.585Z,60.90
2022-10-18T23:41:25.104Z,61.31
2022-10-18T23:43:53.647Z,61.03
2022-10-18T23:46:22.284Z,61.08
2022-10-18T23:48:52.181Z,61.17
2022-10-18T23:51:20.636Z,61.29
2022-10-18T23:53:49.081Z,61.14
2022-10-18T23:56:17.575Z,61.22
2022-10-18T23:58:46.860Z,61.30
